sensor_id;sensor_type;location;lat;lon;timestamp;P1;durP1;ratioP1;P2;durP2;ratioP2
40601;SDS011;26310;50.278;19.032;2023-07-30T00:04:15;2.95;;;1.88;;
40601;SDS011;26310;50.278;19.032;2023-07-30T00:09:18;3.63;;;2.03;;
40601;SDS011;26310;50.278;19.032;2023-07-30T00:14:21;2.72;;;2.08;;
40601;SDS011;26310;50.278;19.032;2023-07-30T00:19:23;4.72;;;2.00;;
40601;SDS011;26310;50.278;19.032;2023-07-30T00:24:26;3.47;;;2.35;;
40601;SDS011;26310;50.278;19.032;2023-07-30T00:29:29;6.70;;;3.60;;
40601;SDS011;26310;50.278;19.032;2023-07-30T00:34:32;4.10;;;3.53;;
40601;SDS011;26310;50.278;19.032;2023-07-30T00:39:35;5.47;;;3.22;;
40601;SDS011;26310;50.278;19.032;2023-07-30T00:44:37;4.18;;;2.75;;
40601;SDS011;26310;50.278;19.032;2023-07-30T00:49:40;3.85;;;2.20;;
40601;SDS011;26310;50.278;19.032;2023-07-30T00:54:43;2.77;;;1.90;;
40601;SDS011;26310;50.278;19.032;2023-07-30T00:59:46;3.83;;;1.63;;
40601;SDS011;26310;50.278;19.032;2023-07-30T01:04:50;2.40;;;1.60;;
40601;SDS011;26310;50.278;19.032;2023-07-30T01:09:53;3.92;;;2.00;;
40601;SDS011;26310;50.278;19.032;2023-07-30T01:14:56;2.78;;;1.70;;
40601;SDS011;26310;50.278;19.032;2023-07-30T01:19:59;2.23;;;1.70;;
40601;SDS011;26310;50.278;19.032;2023-07-30T01:25:02;1.80;;;1.50;;
40601;SDS011;26310;50.278;19.032;2023-07-30T01:30:18;3.45;;;1.83;;
40601;SDS011;26310;50.278;19.032;2023-07-30T01:35:29;3.95;;;2.00;;
40601;SDS011;26310;50.278;19.032;2023-07-30T01:40:33;3.60;;;2.10;;
40601;SDS011;26310;50.278;19.032;2023-07-30T01:45:36;2.40;;;1.73;;
40601;SDS011;26310;50.278;19.032;2023-07-30T01:50:38;2.33;;;1.43;;
40601;SDS011;26310;50.278;19.032;2023-07-30T01:55:41;1.67;;;1.50;;
40601;SDS011;26310;50.278;19.032;2023-07-30T02:00:45;5.28;;;1.75;;
40601;SDS011;26310;50.278;19.032;2023-07-30T02:05:48;2.63;;;1.30;;
40601;SDS011;26310;50.278;19.032;2023-07-30T02:10:57;3.30;;;1.40;;
40601;SDS011;26310;50.278;19.032;2023-07-30T02:16:01;3.10;;;1.75;;
40601;SDS011;26310;50.278;19.032;2023-07-30T02:21:04;3.60;;;1.90;;
40601;SDS011;26310;50.278;19.032;2023-07-30T02:26:06;4.07;;;1.67;;
40601;SDS011;26310;50.278;19.032;2023-07-30T02:31:09;2.10;;;1.37;;
40601;SDS011;26310;50.278;19.032;2023-07-30T02:36:12;3.63;;;2.23;;
40601;SDS011;26310;50.278;19.032;2023-07-30T02:41:15;5.93;;;3.20;;
40601;SDS011;26310;50.278;19.032;2023-07-30T02:46:18;6.47;;;3.23;;
40601;SDS011;26310;50.278;19.032;2023-07-30T02:51:21;5.67;;;2.93;;
40601;SDS011;26310;50.278;19.032;2023-07-30T02:56:24;4.00;;;2.37;;
40601;SDS011;26310;50.278;19.032;2023-07-30T03:01:27;3.63;;;2.30;;
40601;SDS011;26310;50.278;19.032;2023-07-30T03:06:29;3.13;;;2.10;;
40601;SDS011;26310;50.278;19.032;2023-07-30T03:11:32;4.97;;;2.00;;
40601;SDS011;26310;50.278;19.032;2023-07-30T03:16:35;3.57;;;1.93;;
40601;SDS011;26310;50.278;19.032;2023-07-30T03:21:38;6.30;;;2.40;;
40601;SDS011;26310;50.278;19.032;2023-07-30T03:26:41;2.80;;;1.80;;
40601;SDS011;26310;50.278;19.032;2023-07-30T03:31:44;3.37;;;1.70;;
40601;SDS011;26310;50.278;19.032;2023-07-30T03:36:46;4.20;;;2.23;;
40601;SDS011;26310;50.278;19.032;2023-07-30T03:41:49;5.53;;;2.10;;
40601;SDS011;26310;50.278;19.032;2023-07-30T03:46:52;2.73;;;1.93;;
40601;SDS011;26310;50.278;19.032;2023-07-30T03:51:55;6.30;;;2.37;;
40601;SDS011;26310;50.278;19.032;2023-07-30T03:56:58;6.23;;;2.43;;
40601;SDS011;26310;50.278;19.032;2023-07-30T04:02:01;4.17;;;1.97;;
40601;SDS011;26310;50.278;19.032;2023-07-30T04:07:04;3.73;;;2.43;;
40601;SDS011;26310;50.278;19.032;2023-07-30T04:12:06;5.63;;;2.03;;
40601;SDS011;26310;50.278;19.032;2023-07-30T04:17:09;3.40;;;1.83;;
40601;SDS011;26310;50.278;19.032;2023-07-30T04:22:12;3.23;;;2.00;;
40601;SDS011;26310;50.278;19.032;2023-07-30T04:27:16;5.10;;;2.60;;
40601;SDS011;26310;50.278;19.032;2023-07-30T04:32:19;6.43;;;2.50;;
40601;SDS011;26310;50.278;19.032;2023-07-30T04:37:22;4.70;;;2.40;;
40601;SDS011;26310;50.278;19.032;2023-07-30T04:42:24;3.70;;;2.50;;
40601;SDS011;26310;50.278;19.032;2023-07-30T04:47:27;10.13;;;2.87;;
40601;SDS011;26310;50.278;19.032;2023-07-30T04:52:30;4.20;;;2.33;;
40601;SDS011;26310;50.278;19.032;2023-07-30T04:57:33;4.10;;;2.10;;
40601;SDS011;26310;50.278;19.032;2023-07-30T05:02:36;5.07;;;2.20;;
40601;SDS011;26310;50.278;19.032;2023-07-30T05:07:39;4.67;;;2.67;;
40601;SDS011;26310;50.278;19.032;2023-07-30T05:12:41;3.30;;;2.30;;
40601;SDS011;26310;50.278;19.032;2023-07-30T05:17:44;3.03;;;2.10;;
40601;SDS011;26310;50.278;19.032;2023-07-30T05:22:47;5.13;;;2.20;;
40601;SDS011;26310;50.278;19.032;2023-07-30T05:27:50;4.50;;;2.53;;
40601;SDS011;26310;50.278;19.032;2023-07-30T05:32:53;2.50;;;1.80;;
40601;SDS011;26310;50.278;19.032;2023-07-30T05:37:56;2.60;;;1.77;;
40601;SDS011;26310;50.278;19.032;2023-07-30T05:42:59;4.00;;;1.97;;
40601;SDS011;26310;50.278;19.032;2023-07-30T05:48:02;2.83;;;1.93;;
40601;SDS011;26310;50.278;19.032;2023-07-30T05:53:05;4.80;;;2.17;;
40601;SDS011;26310;50.278;19.032;2023-07-30T05:58:08;2.60;;;2.10;;
40601;SDS011;26310;50.278;19.032;2023-07-30T06:03:11;5.30;;;2.38;;
40601;SDS011;26310;50.278;19.032;2023-07-30T06:08:14;3.57;;;2.60;;
40601;SDS011;26310;50.278;19.032;2023-07-30T06:13:17;3.33;;;2.27;;
40601;SDS011;26310;50.278;19.032;2023-07-30T06:18:20;2.87;;;1.70;;
40601;SDS011;26310;50.278;19.032;2023-07-30T06:23:23;3.38;;;2.00;;
40601;SDS011;26310;50.278;19.032;2023-07-30T06:28:26;3.85;;;2.13;;
40601;SDS011;26310;50.278;19.032;2023-07-30T06:33:29;2.63;;;1.63;;
40601;SDS011;26310;50.278;19.032;2023-07-30T06:38:34;2.33;;;1.70;;
40601;SDS011;26310;50.278;19.032;2023-07-30T06:43:39;2.50;;;1.73;;
40601;SDS011;26310;50.278;19.032;2023-07-30T06:48:42;8.43;;;2.05;;
40601;SDS011;26310;50.278;19.032;2023-07-30T06:53:44;3.33;;;2.00;;
40601;SDS011;26310;50.278;19.032;2023-07-30T06:58:48;4.35;;;2.00;;
40601;SDS011;26310;50.278;19.032;2023-07-30T07:03:51;2.20;;;1.90;;
40601;SDS011;26310;50.278;19.032;2023-07-30T07:08:54;2.60;;;2.15;;
40601;SDS011;26310;50.278;19.032;2023-07-30T07:13:57;3.35;;;2.60;;
40601;SDS011;26310;50.278;19.032;2023-07-30T07:19:00;4.55;;;2.58;;
40601;SDS011;26310;50.278;19.032;2023-07-30T07:24:03;2.60;;;2.33;;
40601;SDS011;26310;50.278;19.032;2023-07-30T07:29:05;3.20;;;2.78;;
40601;SDS011;26310;50.278;19.032;2023-07-30T07:34:08;3.88;;;2.40;;
40601;SDS011;26310;50.278;19.032;2023-07-30T07:39:11;3.90;;;2.47;;
40601;SDS011;26310;50.278;19.032;2023-07-30T07:44:14;2.95;;;2.50;;
40601;SDS011;26310;50.278;19.032;2023-07-30T07:49:17;5.43;;;2.40;;
40601;SDS011;26310;50.278;19.032;2023-07-30T07:54:20;3.35;;;2.47;;
40601;SDS011;26310;50.278;19.032;2023-07-30T07:59:23;5.78;;;2.20;;
40601;SDS011;26310;50.278;19.032;2023-07-30T08:04:26;2.60;;;2.30;;
40601;SDS011;26310;50.278;19.032;2023-07-30T08:09:30;3.55;;;2.17;;
40601;SDS011;26310;50.278;19.032;2023-07-30T08:14:33;4.05;;;2.80;;
40601;SDS011;26310;50.278;19.032;2023-07-30T08:19:36;2.95;;;2.20;;
40601;SDS011;26310;50.278;19.032;2023-07-30T08:24:38;2.83;;;2.42;;
40601;SDS011;26310;50.278;19.032;2023-07-30T08:29:41;3.60;;;2.22;;
40601;SDS011;26310;50.278;19.032;2023-07-30T08:34:44;2.83;;;2.30;;
40601;SDS011;26310;50.278;19.032;2023-07-30T08:39:47;4.30;;;2.60;;
40601;SDS011;26310;50.278;19.032;2023-07-30T08:44:51;2.65;;;2.28;;
40601;SDS011;26310;50.278;19.032;2023-07-30T08:49:54;7.18;;;2.60;;
40601;SDS011;26310;50.278;19.032;2023-07-30T08:54:57;3.45;;;2.10;;
40601;SDS011;26310;50.278;19.032;2023-07-30T09:05:10;3.85;;;2.30;;
40601;SDS011;26310;50.278;19.032;2023-07-30T09:10:13;3.97;;;2.58;;
40601;SDS011;26310;50.278;19.032;2023-07-30T09:15:17;4.00;;;2.58;;
40601;SDS011;26310;50.278;19.032;2023-07-30T09:20:19;2.67;;;2.35;;
40601;SDS011;26310;50.278;19.032;2023-07-30T09:25:22;4.20;;;2.63;;
40601;SDS011;26310;50.278;19.032;2023-07-30T09:30:26;2.45;;;2.20;;
40601;SDS011;26310;50.278;19.032;2023-07-30T09:35:29;3.10;;;2.30;;
40601;SDS011;26310;50.278;19.032;2023-07-30T09:40:38;3.15;;;2.47;;
40601;SDS011;26310;50.278;19.032;2023-07-30T09:45:44;3.92;;;2.35;;
40601;SDS011;26310;50.278;19.032;2023-07-30T09:50:50;3.35;;;2.25;;
40601;SDS011;26310;50.278;19.032;2023-07-30T09:55:53;2.92;;;2.10;;
40601;SDS011;26310;50.278;19.032;2023-07-30T10:01:00;2.42;;;2.15;;
40601;SDS011;26310;50.278;19.032;2023-07-30T10:06:03;2.58;;;2.28;;
40601;SDS011;26310;50.278;19.032;2023-07-30T10:11:09;3.58;;;2.42;;
40601;SDS011;26310;50.278;19.032;2023-07-30T10:16:14;5.20;;;2.22;;
40601;SDS011;26310;50.278;19.032;2023-07-30T10:21:22;2.25;;;1.85;;
40601;SDS011;26310;50.278;19.032;2023-07-30T10:26:27;2.42;;;1.85;;
40601;SDS011;26310;50.278;19.032;2023-07-30T10:31:41;3.47;;;2.30;;
40601;SDS011;26310;50.278;19.032;2023-07-30T10:36:46;2.08;;;1.80;;
40601;SDS011;26310;50.278;19.032;2023-07-30T10:41:50;2.78;;;1.90;;
40601;SDS011;26310;50.278;19.032;2023-07-30T10:46:55;3.47;;;2.15;;
40601;SDS011;26310;50.278;19.032;2023-07-30T10:51:59;4.40;;;2.30;;
40601;SDS011;26310;50.278;19.032;2023-07-30T10:57:02;2.10;;;1.85;;
40601;SDS011;26310;50.278;19.032;2023-07-30T11:02:06;2.10;;;1.90;;
40601;SDS011;26310;50.278;19.032;2023-07-30T11:07:10;2.13;;;1.85;;
40601;SDS011;26310;50.278;19.032;2023-07-30T11:12:19;2.45;;;2.17;;
40601;SDS011;26310;50.278;19.032;2023-07-30T11:17:24;3.45;;;1.90;;
40601;SDS011;26310;50.278;19.032;2023-07-30T11:22:34;2.38;;;2.03;;
40601;SDS011;26310;50.278;19.032;2023-07-30T11:27:44;3.30;;;2.15;;
40601;SDS011;26310;50.278;19.032;2023-07-30T11:32:48;3.05;;;1.95;;
40601;SDS011;26310;50.278;19.032;2023-07-30T11:37:51;2.10;;;1.80;;
40601;SDS011;26310;50.278;19.032;2023-07-30T11:42:54;4.80;;;2.33;;
40601;SDS011;26310;50.278;19.032;2023-07-30T11:48:10;2.40;;;2.20;;
40601;SDS011;26310;50.278;19.032;2023-07-30T11:53:13;2.40;;;2.05;;
40601;SDS011;26310;50.278;19.032;2023-07-30T11:58:16;2.40;;;2.20;;
40601;SDS011;26310;50.278;19.032;2023-07-30T12:03:19;2.25;;;2.05;;
40601;SDS011;26310;50.278;19.032;2023-07-30T12:08:25;3.38;;;2.33;;
40601;SDS011;26310;50.278;19.032;2023-07-30T12:13:29;2.58;;;2.13;;
40601;SDS011;26310;50.278;19.032;2023-07-30T12:18:32;2.60;;;2.15;;
40601;SDS011;26310;50.278;19.032;2023-07-30T12:23:35;8.35;;;2.50;;
40601;SDS011;26310;50.278;19.032;2023-07-30T12:28:38;2.33;;;2.13;;
40601;SDS011;26310;50.278;19.032;2023-07-30T12:33:41;2.40;;;2.10;;
40601;SDS011;26310;50.278;19.032;2023-07-30T12:38:44;2.70;;;2.10;;
40601;SDS011;26310;50.278;19.032;2023-07-30T12:43:48;3.58;;;2.17;;
40601;SDS011;26310;50.278;19.032;2023-07-30T12:48:51;2.58;;;2.10;;
40601;SDS011;26310;50.278;19.032;2023-07-30T12:53:54;3.55;;;2.10;;
40601;SDS011;26310;50.278;19.032;2023-07-30T12:58:56;3.05;;;2.13;;
40601;SDS011;26310;50.278;19.032;2023-07-30T13:03:59;2.42;;;2.22;;
40601;SDS011;26310;50.278;19.032;2023-07-30T13:09:02;2.38;;;2.08;;
40601;SDS011;26310;50.278;19.032;2023-07-30T13:14:05;2.80;;;2.50;;
40601;SDS011;26310;50.278;19.032;2023-07-30T13:19:08;2.70;;;2.40;;
40601;SDS011;26310;50.278;19.032;2023-07-30T13:24:11;2.85;;;2.53;;
40601;SDS011;26310;50.278;19.032;2023-07-30T13:29:13;3.08;;;2.47;;
40601;SDS011;26310;50.278;19.032;2023-07-30T13:34:16;3.58;;;2.88;;
40601;SDS011;26310;50.278;19.032;2023-07-30T13:39:19;3.28;;;2.28;;
40601;SDS011;26310;50.278;19.032;2023-07-30T13:44:22;2.88;;;2.08;;
40601;SDS011;26310;50.278;19.032;2023-07-30T13:49:25;3.65;;;2.35;;
40601;SDS011;26310;50.278;19.032;2023-07-30T13:54:27;2.40;;;2.20;;
40601;SDS011;26310;50.278;19.032;2023-07-30T13:59:30;3.22;;;2.13;;
40601;SDS011;26310;50.278;19.032;2023-07-30T14:04:33;2.88;;;2.28;;
40601;SDS011;26310;50.278;19.032;2023-07-30T14:09:36;2.60;;;2.10;;
40601;SDS011;26310;50.278;19.032;2023-07-30T14:14:39;3.05;;;2.33;;
40601;SDS011;26310;50.278;19.032;2023-07-30T14:19:42;2.33;;;2.10;;
40601;SDS011;26310;50.278;19.032;2023-07-30T14:24:45;2.40;;;2.10;;
40601;SDS011;26310;50.278;19.032;2023-07-30T14:29:48;5.00;;;2.35;;
40601;SDS011;26310;50.278;19.032;2023-07-30T14:34:50;2.72;;;2.00;;
40601;SDS011;26310;50.278;19.032;2023-07-30T14:39:53;2.47;;;1.92;;
40601;SDS011;26310;50.278;19.032;2023-07-30T14:44:56;2.50;;;2.30;;
40601;SDS011;26310;50.278;19.032;2023-07-30T14:49:59;4.38;;;2.45;;
40601;SDS011;26310;50.278;19.032;2023-07-30T14:55:03;3.70;;;2.28;;
40601;SDS011;26310;50.278;19.032;2023-07-30T15:00:06;3.58;;;2.47;;
40601;SDS011;26310;50.278;19.032;2023-07-30T15:05:13;4.20;;;2.55;;
